sensor_id;sensor_type;location;lat;lon;timestamp;temperature;humidity
44731;DHT22;30458;47.448;19.032;2024-02-26T00:00:17;10.50;99.90
44731;DHT22;30458;47.448;19.032;2024-02-26T00:10:18;10.50;99.90
44731;DHT22;30458;47.448;19.032;2024-02-26T00:20:19;10.50;99.90
44731;DHT22;30458;47.448;19.032;2024-02-26T00:30:20;10.40;99.90
44731;DHT22;30458;47.448;19.032;2024-02-26T00:40:20;10.50;99.90
44731;DHT22;30458;47.448;19.032;2024-02-26T00:50:21;10.70;99.90
44731;DHT22;30458;47.448;19.032;2024-02-26T01:00:22;11.00;99.90
44731;DHT22;30458;47.448;19.032;2024-02-26T01:10:23;10.70;99.90
44731;DHT22;30458;47.448;19.032;2024-02-26T01:20:26;10.90;99.90
44731;DHT22;30458;47.448;19.032;2024-02-26T01:30:31;11.20;99.90
44731;DHT22;30458;47.448;19.032;2024-02-26T01:40:32;11.50;99.90
44731;DHT22;30458;47.448;19.032;2024-02-26T01:50:36;11.60;99.90
44731;DHT22;30458;47.448;19.032;2024-02-26T02:00:43;11.70;99.90
44731;DHT22;30458;47.448;19.032;2024-02-26T02:10:44;11.80;99.90
44731;DHT22;30458;47.448;19.032;2024-02-26T02:20:50;11.80;99.90
44731;DHT22;30458;47.448;19.032;2024-02-26T02:30:51;11.80;99.90
44731;DHT22;30458;47.448;19.032;2024-02-26T02:40:56;11.80;99.90
44731;DHT22;30458;47.448;19.032;2024-02-26T02:50:57;11.80;99.90
44731;DHT22;30458;47.448;19.032;2024-02-26T03:00:58;11.70;99.90
44731;DHT22;30458;47.448;19.032;2024-02-26T03:11:00;11.80;99.90
44731;DHT22;30458;47.448;19.032;2024-02-26T03:21:03;11.80;99.90
44731;DHT22;30458;47.448;19.032;2024-02-26T03:31:04;11.70;99.90
44731;DHT22;30458;47.448;19.032;2024-02-26T03:41:07;11.70;99.90
44731;DHT22;30458;47.448;19.032;2024-02-26T03:51:09;11.70;99.90
44731;DHT22;30458;47.448;19.032;2024-02-26T04:01:11;11.60;99.90
44731;DHT22;30458;47.448;19.032;2024-02-26T04:11:14;11.60;99.90
44731;DHT22;30458;47.448;19.032;2024-02-26T04:21:18;11.50;99.90
44731;DHT22;30458;47.448;19.032;2024-02-26T04:31:25;11.60;99.90
44731;DHT22;30458;47.448;19.032;2024-02-26T04:41:26;11.60;99.90
44731;DHT22;30458;47.448;19.032;2024-02-26T04:51:27;11.70;99.90
44731;DHT22;30458;47.448;19.032;2024-02-26T05:01:28;11.70;99.90
44731;DHT22;30458;47.448;19.032;2024-02-26T05:11:29;11.80;99.90
44731;DHT22;30458;47.448;19.032;2024-02-26T05:21:29;11.80;99.90
44731;DHT22;30458;47.448;19.032;2024-02-26T05:31:33;11.70;99.90
44731;DHT22;30458;47.448;19.032;2024-02-26T05:41:33;11.70;99.90
44731;DHT22;30458;47.448;19.032;2024-02-26T05:51:36;11.80;99.90
44731;DHT22;30458;47.448;19.032;2024-02-26T06:01:40;11.80;99.90
44731;DHT22;30458;47.448;19.032;2024-02-26T06:11:41;11.90;99.90
44731;DHT22;30458;47.448;19.032;2024-02-26T06:21:47;11.90;99.90
44731;DHT22;30458;47.448;19.032;2024-02-26T06:31:50;12.00;99.90
44731;DHT22;30458;47.448;19.032;2024-02-26T06:41:53;12.20;99.90
44731;DHT22;30458;47.448;19.032;2024-02-26T06:52:00;12.20;99.90
44731;DHT22;30458;47.448;19.032;2024-02-26T07:02:01;12.20;99.90
44731;DHT22;30458;47.448;19.032;2024-02-26T07:12:05;12.10;99.90
44731;DHT22;30458;47.448;19.032;2024-02-26T07:22:06;12.10;99.90
44731;DHT22;30458;47.448;19.032;2024-02-26T07:32:06;12.40;99.90
44731;DHT22;30458;47.448;19.032;2024-02-26T07:42:07;12.60;99.90
44731;DHT22;30458;47.448;19.032;2024-02-26T07:52:13;12.70;99.90
44731;DHT22;30458;47.448;19.032;2024-02-26T08:02:16;12.30;99.90
44731;DHT22;30458;47.448;19.032;2024-02-26T08:12:19;12.70;99.90
44731;DHT22;30458;47.448;19.032;2024-02-26T08:22:22;12.90;99.90
44731;DHT22;30458;47.448;19.032;2024-02-26T08:32:23;13.70;99.90
44731;DHT22;30458;47.448;19.032;2024-02-26T08:42:24;13.90;99.90
44731;DHT22;30458;47.448;19.032;2024-02-26T08:52:25;13.40;99.90
44731;DHT22;30458;47.448;19.032;2024-02-26T09:02:26;12.40;99.90
44731;DHT22;30458;47.448;19.032;2024-02-26T09:12:27;12.20;99.90
44731;DHT22;30458;47.448;19.032;2024-02-26T09:22:30;12.30;99.90
44731;DHT22;30458;47.448;19.032;2024-02-26T09:32:31;12.20;99.90
44731;DHT22;30458;47.448;19.032;2024-02-26T09:42:32;12.60;99.90
44731;DHT22;30458;47.448;19.032;2024-02-26T09:52:38;12.90;99.90
44731;DHT22;30458;47.448;19.032;2024-02-26T10:02:40;12.70;99.90
44731;DHT22;30458;47.448;19.032;2024-02-26T10:12:41;12.80;99.90
44731;DHT22;30458;47.448;19.032;2024-02-26T10:22:42;12.80;99.90
44731;DHT22;30458;47.448;19.032;2024-02-26T10:32:44;13.00;99.90
44731;DHT22;30458;47.448;19.032;2024-02-26T10:42:47;13.90;99.90
44731;DHT22;30458;47.448;19.032;2024-02-26T10:52:50;14.90;99.90
44731;DHT22;30458;47.448;19.032;2024-02-26T11:02:54;15.10;99.90
44731;DHT22;30458;47.448;19.032;2024-02-26T11:12:59;15.00;99.90
44731;DHT22;30458;47.448;19.032;2024-02-26T11:23:03;15.10;99.90
44731;DHT22;30458;47.448;19.032;2024-02-26T11:33:07;14.90;99.90
44731;DHT22;30458;47.448;19.032;2024-02-26T11:43:08;15.30;99.90
44731;DHT22;30458;47.448;19.032;2024-02-26T11:53:29;15.10;99.90
44731;DHT22;30458;47.448;19.032;2024-02-26T12:03:31;14.60;99.90
44731;DHT22;30458;47.448;19.032;2024-02-26T12:13:35;14.70;99.90
44731;DHT22;30458;47.448;19.032;2024-02-26T12:23:36;14.60;99.90
44731;DHT22;30458;47.448;19.032;2024-02-26T12:33:36;15.00;99.90
44731;DHT22;30458;47.448;19.032;2024-02-26T12:43:37;14.80;99.90
44731;DHT22;30458;47.448;19.032;2024-02-26T12:53:38;14.70;99.90
44731;DHT22;30458;47.448;19.032;2024-02-26T13:03:45;14.70;99.90
44731;DHT22;30458;47.448;19.032;2024-02-26T13:13:49;14.90;99.90
44731;DHT22;30458;47.448;19.032;2024-02-26T13:23:53;14.80;99.90
44731;DHT22;30458;47.448;19.032;2024-02-26T13:33:55;15.00;99.90
44731;DHT22;30458;47.448;19.032;2024-02-26T13:43:56;15.40;99.90
44731;DHT22;30458;47.448;19.032;2024-02-26T13:53:58;15.40;99.90
44731;DHT22;30458;47.448;19.032;2024-02-26T14:03:59;15.20;99.90
44731;DHT22;30458;47.448;19.032;2024-02-26T14:14:04;15.10;99.90
44731;DHT22;30458;47.448;19.032;2024-02-26T14:24:05;15.00;99.90
44731;DHT22;30458;47.448;19.032;2024-02-26T14:34:08;15.10;99.90
44731;DHT22;30458;47.448;19.032;2024-02-26T14:44:12;15.10;99.90
44731;DHT22;30458;47.448;19.032;2024-02-26T14:54:15;15.10;99.90
44731;DHT22;30458;47.448;19.032;2024-02-26T15:04:19;15.20;99.90
44731;DHT22;30458;47.448;19.032;2024-02-26T15:14:19;15.10;99.90
44731;DHT22;30458;47.448;19.032;2024-02-26T15:24:20;15.00;99.90
44731;DHT22;30458;47.448;19.032;2024-02-26T15:34:21;15.00;99.90
44731;DHT22;30458;47.448;19.032;2024-02-26T15:44:22;14.90;99.90
44731;DHT22;30458;47.448;19.032;2024-02-26T15:54:25;14.90;99.90
44731;DHT22;30458;47.448;19.032;2024-02-26T16:04:25;14.80;99.90
44731;DHT22;30458;47.448;19.032;2024-02-26T16:24:40;14.60;99.90
44731;DHT22;30458;47.448;19.032;2024-02-26T16:34:43;14.50;99.90
44731;DHT22;30458;47.448;19.032;2024-02-26T16:44:44;14.50;99.90
44731;DHT22;30458;47.448;19.032;2024-02-26T16:54:44;14.40;99.90
44731;DHT22;30458;47.448;19.032;2024-02-26T17:04:45;14.30;99.90
44731;DHT22;30458;47.448;19.032;2024-02-26T17:14:46;14.10;99.90
44731;DHT22;30458;47.448;19.032;2024-02-26T17:24:49;13.90;99.90
44731;DHT22;30458;47.448;19.032;2024-02-26T17:34:50;13.80;99.90
44731;DHT22;30458;47.448;19.032;2024-02-26T17:44:53;13.60;99.90
44731;DHT22;30458;47.448;19.032;2024-02-26T17:54:53;13.40;99.90
44731;DHT22;30458;47.448;19.032;2024-02-26T18:04:54;13.30;99.90
44731;DHT22;30458;47.448;19.032;2024-02-26T18:14:57;13.20;99.90
44731;DHT22;30458;47.448;19.032;2024-02-26T18:24:58;13.20;99.90
44731;DHT22;30458;47.448;19.032;2024-02-26T18:34:59;13.20;99.90
44731;DHT22;30458;47.448;19.032;2024-02-26T18:45:05;13.00;99.90
44731;DHT22;30458;47.448;19.032;2024-02-26T18:55:08;12.90;99.90
44731;DHT22;30458;47.448;19.032;2024-02-26T19:05:09;12.70;99.90
44731;DHT22;30458;47.448;19.032;2024-02-26T19:15:10;12.60;99.90
44731;DHT22;30458;47.448;19.032;2024-02-26T19:25:15;12.50;99.90
44731;DHT22;30458;47.448;19.032;2024-02-26T19:35:16;12.40;99.90
44731;DHT22;30458;47.448;19.032;2024-02-26T19:45:19;12.30;99.90
44731;DHT22;30458;47.448;19.032;2024-02-26T19:55:20;12.20;99.90
44731;DHT22;30458;47.448;19.032;2024-02-26T20:05:23;11.90;99.90
44731;DHT22;30458;47.448;19.032;2024-02-26T20:15:24;11.90;99.90
44731;DHT22;30458;47.448;19.032;2024-02-26T20:25:27;11.90;99.90
44731;DHT22;30458;47.448;19.032;2024-02-26T20:35:29;11.90;99.90
44731;DHT22;30458;47.448;19.032;2024-02-26T20:45:32;12.00;99.90
44731;DHT22;30458;47.448;19.032;2024-02-26T20:55:36;12.10;99.90
44731;DHT22;30458;47.448;19.032;2024-02-26T21:05:39;12.00;99.90
44731;DHT22;30458;47.448;19.032;2024-02-26T21:15:39;11.90;99.90
44731;DHT22;30458;47.448;19.032;2024-02-26T21:25:41;12.00;99.90
44731;DHT22;30458;47.448;19.032;2024-02-26T21:35:44;12.00;99.90
44731;DHT22;30458;47.448;19.032;2024-02-26T21:45:45;12.10;99.90
44731;DHT22;30458;47.448;19.032;2024-02-26T21:55:45;12.40;99.90
44731;DHT22;30458;47.448;19.032;2024-02-26T22:05:50;12.60;99.90
44731;DHT22;30458;47.448;19.032;2024-02-26T22:15:53;12.50;99.90
44731;DHT22;30458;47.448;19.032;2024-02-26T22:25:53;12.40;99.90
44731;DHT22;30458;47.448;19.032;2024-02-26T22:35:54;12.40;99.90
44731;DHT22;30458;47.448;19.032;2024-02-26T22:45:55;12.30;99.90
44731;DHT22;30458;47.448;19.032;2024-02-26T22:55:56;12.30;99.90
44731;DHT22;30458;47.448;19.032;2024-02-26T23:05:56;12.40;99.90
44731;DHT22;30458;47.448;19.032;2024-02-26T23:15:58;12.60;99.90
44731;DHT22;30458;47.448;19.032;2024-02-26T23:25:58;12.60;99.90
44731;DHT22;30458;47.448;19.032;2024-02-26T23:36:04;12.60;99.90
44731;DHT22;30458;47.448;19.032;2024-02-26T23:46:07;12.20;99.90
44731;DHT22;30458;47.448;19.032;2024-02-26T23:56:09;12.10;99.90
